Time;durP1;ratioP1;P1;durP2;ratioP2;P2;SDS_P1;SDS_P2;PMS_P1;PMS_P2;Temp;Humidity;BMP_temperature;BMP_pressure;BME280_temperature;BME280_humidity;BME280_pressure;Samples;Min_cycle;Max_cycle;Signal;HPM_P1;HPM_P2
2021/08/05 00:00:43;;;;;;;7.03;3.20;;;;;;;21.13;51.94;99852.44;3313510;29;20050;-71
2021/08/05 00:02:24;;;;;;;4.57;2.13;;;;;;;21.09;52.03;99848.59;3325000;29;20395;-71
2021/08/05 00:04:04;;;;;;;5.97;2.80;;;;;;;21.04;52.24;99845.84;3315790;29;20043;-71
2021/08/05 00:05:45;;;;;;;6.05;2.83;;;;;;;21.05;52.16;99847.50;3313341;29;20050;-72
2021/08/05 00:07:26;;;;;;;4.28;2.60;;;;;;;21.04;52.16;99851.28;3313592;29;20053;-70
2021/08/05 00:09:06;;;;;;;5.50;2.83;;;;;;;20.99;52.37;99840.41;3313411;29;20088;-70
2021/08/05 00:10:47;;;;;;;5.87;2.87;;;;;;;21.00;52.18;99847.47;3313066;29;20164;-71
2021/08/05 00:12:28;;;;;;;5.22;2.38;;;;;;;20.98;52.21;99849.63;3313184;29;20057;-71
2021/08/05 00:14:09;;;;;;;5.87;2.73;;;;;;;20.96;52.25;99851.75;3313264;29;20055;-70
2021/08/05 00:15:50;;;;;;;4.10;3.03;;;;;;;20.94;52.12;99843.91;3313296;29;20054;-71
2021/08/05 00:17:30;;;;;;;7.00;3.10;;;;;;;20.91;52.35;99853.38;3324756;29;20077;-71
2021/08/05 00:19:11;;;;;;;3.03;2.13;;;;;;;20.92;52.81;99855.00;3315273;29;20051;-71
2021/08/05 00:20:52;;;;;;;8.50;3.10;;;;;;;20.96;52.63;99862.59;3313132;29;20043;-72
2021/08/05 00:22:32;;;;;;;5.60;3.27;;;;;;;20.94;52.59;99860.16;3313195;29;20039;-72
2021/08/05 00:24:13;;;;;;;5.05;3.17;;;;;;;20.98;52.67;99865.88;3313043;29;20062;-72
2021/08/05 00:25:54;;;;;;;3.63;2.40;;;;;;;20.97;52.64;99866.97;3313280;29;20188;-72
2021/08/05 00:27:35;;;;;;;5.40;2.23;;;;;;;20.96;52.96;99863.44;3313269;29;20051;-72
2021/08/05 00:29:23;;;;;;;5.55;2.70;;;;;;;20.96;52.81;99859.88;3313061;29;20119;-72
2021/08/05 00:31:05;;;;;;;5.30;2.60;;;;;;;20.91;52.82;99847.94;3313028;29;20094;-72
2021/08/05 00:32:46;;;;;;;4.90;2.40;;;;;;;20.90;52.78;99859.84;3313003;29;20049;-72
2021/08/05 00:34:27;;;;;;;4.43;2.80;;;;;;;20.90;52.71;99859.84;3324742;29;20046;-72
2021/08/05 00:36:08;;;;;;;6.27;2.90;;;;;;;20.87;52.69;99857.66;3324605;29;20054;-74
2021/08/05 00:37:49;;;;;;;5.13;2.40;;;;;;;20.85;52.70;99856.28;3315019;29;20685;-73
2021/08/05 00:39:30;;;;;;;6.17;2.83;;;;;;;20.84;52.61;99850.06;3312966;29;20066;-73
2021/08/05 00:41:12;;;;;;;7.88;3.35;;;;;;;20.80;52.67;99848.91;3312830;29;20115;-71
2021/08/05 00:42:53;;;;;;;12.02;4.07;;;;;;;20.81;52.83;99856.00;3312535;29;20055;-72
2021/08/05 00:44:36;;;;;;;9.80;2.93;;;;;;;20.79;52.80;99857.31;3313076;29;20137;-71
2021/08/05 00:46:17;;;;;;;7.50;2.97;;;;;;;20.76;52.70;99842.41;3312038;29;20051;-73
2021/08/05 00:47:58;;;;;;;10.33;3.10;;;;;;;20.78;53.13;99852.97;3321788;29;20076;-72
2021/08/05 00:49:38;;;;;;;14.50;3.03;;;;;;;20.78;52.88;99850.25;3324445;29;20112;-72
2021/08/05 00:51:20;;;;;;;5.03;3.10;;;;;;;20.77;53.04;99854.88;3315114;29;20046;-72
2021/08/05 00:53:01;;;;;;;8.07;3.17;;;;;;;20.76;53.40;99847.81;3312981;29;20070;-73
2021/08/05 00:54:41;;;;;;;4.47;3.10;;;;;;;20.76;52.99;99852.44;3312903;29;20050;-72
2021/08/05 00:56:22;;;;;;;7.03;3.22;;;;;;;20.74;53.20;99854.56;3324412;29;20056;-73
2021/08/05 00:58:03;;;;;;;3.40;3.03;;;;;;;20.73;53.17;99863.75;3324155;29;20122;-73
2021/08/05 00:59:44;;;;;;;5.93;2.95;;;;;;;20.71;53.49;99861.31;3324242;29;20046;-72
2021/08/05 01:01:27;;;;;;;6.03;2.83;;;;;;;20.71;53.27;99858.63;3315248;29;20043;-72
2021/08/05 01:03:13;;;;;;;6.95;2.85;;;;;;;20.72;53.51;99868.34;3311854;29;20096;-72
2021/08/05 01:04:55;;;;;;;3.67;2.63;;;;;;;20.67;53.58;99866.41;3309889;29;20047;-72
2021/08/05 01:06:42;;;;;;;8.32;2.88;;;;;;;20.66;53.63;99863.97;3309357;29;20119;-72
2021/08/05 01:08:25;;;;;;;4.80;2.88;;;;;;;20.63;53.59;99870.72;3309820;29;20090;-72
2021/08/05 01:10:08;;;;;;;9.90;3.47;;;;;;;20.62;53.83;99862.84;3322059;29;20046;-72
2021/08/05 01:12:08;;;;;;;6.60;2.85;;;;;;;20.61;53.92;99863.94;3314569;29;20495;-73
2021/08/05 01:13:54;;;;;;;7.07;3.30;;;;;;;20.59;53.88;99860.66;3312350;29;20039;-72
2021/08/05 01:15:34;;;;;;;6.38;2.65;;;;;;;20.58;53.72;99862.56;3324350;29;20153;-72
2021/08/05 01:17:18;;;;;;;5.73;3.33;;;;;;;20.55;53.81;99852.25;3311647;29;20134;-72
2021/08/05 01:19:31;;;;;;;11.18;4.00;;;;;;;20.59;53.71;99864.19;3311444;29;20057;-72
2021/08/05 01:21:18;;;;;;;13.32;3.42;;;;;;;20.53;53.75;99861.66;3304302;29;20435;-72
2021/08/05 01:23:17;;;;;;;8.35;3.25;;;;;;;20.55;54.14;99864.94;3312270;29;20107;-72
2021/08/05 01:25:09;;;;;;;7.32;3.58;;;;;;;20.53;54.01;99864.38;3324129;29;20042;-72
2021/08/05 01:26:50;;;;;;;6.18;3.15;;;;;;;20.49;53.84;99869.47;3324042;29;20069;-72
2021/08/05 01:28:32;;;;;;;10.27;3.57;;;;;;;20.46;53.71;99870.78;3314974;29;20149;-72
2021/08/05 01:30:13;;;;;;;5.18;3.47;;;;;;;20.44;54.08;99866.69;3324176;29;20050;-73
2021/08/05 01:31:54;;;;;;;6.53;3.00;;;;;;;20.41;54.00;99867.22;3311463;29;20042;-72
2021/08/05 01:33:36;;;;;;;9.10;3.25;;;;;;;20.41;54.32;99859.91;3311734;29;20488;-72
2021/08/05 01:35:17;;;;;;;7.57;3.17;;;;;;;20.45;54.29;99860.22;3321678;29;20053;-73
2021/08/05 01:36:58;;;;;;;7.07;3.30;;;;;;;20.46;54.11;99869.97;3324127;29;20054;-73
2021/08/05 01:38:40;;;;;;;4.90;2.93;;;;;;;20.44;54.31;99864.81;3324214;29;20173;-72
2021/08/05 01:40:22;;;;;;;6.53;3.17;;;;;;;20.46;54.38;99870.78;3311508;29;20300;-72
2021/08/05 01:42:02;;;;;;;5.90;3.20;;;;;;;20.46;54.18;99870.78;3321036;29;20062;-73
2021/08/05 01:43:44;;;;;;;6.68;3.38;;;;;;;20.46;54.21;99873.50;3323762;29;20057;-72
2021/08/05 01:45:26;;;;;;;5.45;3.40;;;;;;;20.46;54.32;99870.78;3324055;29;20046;-71
2021/08/05 01:47:06;;;;;;;6.90;3.30;;;;;;;20.47;54.33;99877.00;3313958;29;20055;-73
2021/08/05 01:48:49;;;;;;;7.63;3.35;;;;;;;20.41;54.67;99873.44;3311987;29;20149;-74
2021/08/05 01:50:31;;;;;;;4.75;2.85;;;;;;;20.46;54.52;99878.09;3323811;29;20058;-72
2021/08/05 01:52:12;;;;;;;4.23;3.40;;;;;;;20.39;54.74;99872.88;3314382;29;20129;-74
2021/08/05 01:53:53;;;;;;;7.18;3.30;;;;;;;20.45;54.82;99885.41;3323986;29;20061;-72
2021/08/05 01:55:35;;;;;;;;;;;;;;;20.49;54.40;99872.16;3314836;29;20416;-72
2021/08/05 01:57:16;;;;;;;7.90;3.42;;;;;;;20.40;54.46;99877.22;3323966;29;20005;-72
2021/08/05 01:58:59;;;;;;;6.45;4.07;;;;;;;20.40;54.68;99877.22;3323739;29;20073;-72
2021/08/05 02:00:41;;;;;;;7.80;3.10;;;;;;;20.37;54.64;99872.34;3323819;29;20055;-72
2021/08/05 02:02:22;;;;;;;8.93;3.10;;;;;;;20.37;54.76;99869.63;3314621;29;20103;-73
2021/08/05 02:04:37;;;;;;;5.57;3.50;;;;;;;20.38;54.60;99863.13;3311259;29;20381;-72
2021/08/05 02:06:20;;;;;;;8.48;2.90;;;;;;;20.37;54.63;99868.81;3311903;29;20116;-72
2021/08/05 02:08:12;;;;;;;7.07;3.33;;;;;;;20.37;55.03;99871.53;3323783;29;20187;-72
2021/08/05 02:10:14;;;;;;;11.52;3.53;;;;;;;20.40;54.83;99865.59;3311352;29;20565;-73
2021/08/05 02:11:56;;;;;;;8.52;3.83;;;;;;;20.36;54.87;99867.97;3324103;29;20419;-71
2021/08/05 02:13:40;;;;;;;6.38;3.75;;;;;;;20.38;54.96;99862.31;3311188;29;20054;-72
2021/08/05 02:15:22;;;;;;;9.75;4.38;;;;;;;20.35;55.03;99868.25;3311258;29;20536;-72
2021/08/05 02:17:07;;;;;;;10.48;4.00;;;;;;;20.35;54.79;99865.53;3311393;29;20238;-73
2021/08/05 02:18:49;;;;;;;7.63;3.60;;;;;;;20.34;54.77;99863.88;3308768;29;20058;-73
2021/08/05 02:20:30;;;;;;;7.90;3.60;;;;;;;20.32;54.96;99864.16;3308886;29;20058;-73
2021/08/05 02:22:11;;;;;;;4.82;3.55;;;;;;;20.35;55.16;99868.25;3323848;29;20454;-72
2021/08/05 02:23:57;;;;;;;5.07;3.53;;;;;;;20.37;55.17;99864.22;3313670;29;20188;-73
2021/08/05 02:25:39;;;;;;;7.70;3.00;;;;;;;20.38;55.24;99871.25;3321767;29;20078;-72
2021/08/05 02:27:19;;;;;;;9.95;3.92;;;;;;;20.41;55.19;99878.03;3323767;29;20607;-73
2021/08/05 02:29:00;;;;;;;5.30;3.25;;;;;;;20.41;54.99;99868.03;3311151;29;20039;-73
2021/08/05 02:30:42;;;;;;;7.50;4.05;;;;;;;20.43;55.14;99873.19;3320982;29;20050;-73
2021/08/05 02:32:23;;;;;;;7.43;5.03;;;;;;;20.45;54.89;99874.59;3311036;29;20051;-72
2021/08/05 02:34:07;;;;;;;7.05;5.30;;;;;;;20.42;55.34;99875.09;3311897;29;20455;-73
2021/08/05 02:35:49;;;;;;;9.88;5.22;;;;;;;20.47;55.09;99882.44;3323505;29;20090;-74
2021/08/05 02:37:30;;;;;;;9.77;5.05;;;;;;;20.48;55.30;99878.66;3323744;29;20137;-73
2021/08/05 02:39:10;;;;;;;7.80;4.47;;;;;;;20.49;55.20;99877.59;3323435;29;20353;-72
2021/08/05 02:40:52;;;;;;;7.28;4.35;;;;;;;20.49;55.18;99877.59;3314616;29;20074;-73
2021/08/05 02:42:34;;;;;;;7.72;4.35;;;;;;;20.49;54.93;99878.41;3323252;29;20063;-74
2021/08/05 02:44:15;;;;;;;6.85;3.67;;;;;;;20.48;55.19;99875.97;3323228;29;20114;-73
2021/08/05 02:45:57;;;;;;;5.53;3.72;;;;;;;20.53;54.95;99877.91;3311070;29;20043;-73
2021/08/05 02:47:38;;;;;;;12.68;5.10;;;;;;;20.54;55.04;99880.38;3308508;29;20423;-73
2021/08/05 02:49:19;;;;;;;8.83;4.70;;;;;;;20.56;55.09;99883.66;3308272;29;20055;-73
2021/08/05 02:51:00;;;;;;;8.38;4.32;;;;;;;20.58;55.05;99880.69;3308438;29;20324;-73
2021/08/05 02:52:41;;;;;;;7.40;4.63;;;;;;;20.58;54.87;99873.38;3320841;29;20062;-72
2021/08/05 02:54:22;;;;;;;7.60;4.30;;;;;;;20.61;55.02;99872.06;3312072;29;20117;-72
2021/08/05 02:56:04;;;;;;;6.80;4.30;;;;;;;20.63;55.16;99872.63;3310996;29;20360;-72
2021/08/05 02:57:45;;;;;;;8.48;6.35;;;;;;;20.65;55.21;99878.59;3323028;29;20053;-73
2021/08/05 02:59:26;;;;;;;10.00;6.03;;;;;;;20.66;55.02;99878.34;3303058;29;20051;-74
2021/08/05 03:01:07;;;;;;;11.82;6.50;;;;;;;20.68;54.90;99878.09;3323162;29;20113;-72
2021/08/05 03:02:48;;;;;;;8.55;5.93;;;;;;;20.71;54.93;99883.00;3316324;29;20054;-72
2021/08/05 03:04:35;;;;;;;12.13;5.95;;;;;;;20.76;55.05;99887.66;3314141;29;20054;-72
2021/08/05 03:06:16;;;;;;;13.48;5.28;;;;;;;20.77;54.86;99875.72;3325374;29;20471;-73
2021/08/05 03:07:57;;;;;;;8.03;4.80;;;;;;;20.82;55.05;99879.28;3316519;29;20046;-73
2021/08/05 03:09:37;;;;;;;8.93;4.63;;;;;;;20.85;54.79;99883.38;3314144;29;20047;-72
2021/08/05 03:11:18;;;;;;;9.52;4.80;;;;;;;20.87;54.91;99873.09;3313801;29;20134;-73
2021/08/05 03:12:59;;;;;;;4.97;3.70;;;;;;;20.91;55.03;99877.75;3314130;29;20449;-73
2021/08/05 03:14:40;;;;;;;9.20;4.60;;;;;;;20.95;54.77;99874.53;3314047;29;20400;-72
2021/08/05 03:16:20;;;;;;;12.77;4.27;;;;;;;20.98;54.88;99876.72;3314232;29;20126;-73
2021/08/05 03:18:01;;;;;;;8.13;4.10;;;;;;;21.00;54.88;99878.09;3313788;29;20053;-73
2021/08/05 03:19:42;;;;;;;4.87;3.33;;;;;;;21.05;54.75;99872.72;3325423;29;20057;-74
2021/08/05 03:21:23;;;;;;;6.18;4.22;;;;;;;21.09;54.80;99875.69;3316329;29;20125;-72
2021/08/05 03:23:04;;;;;;;7.15;4.50;;;;;;;21.12;54.84;99878.72;3313664;29;20055;-72
2021/08/05 03:24:44;;;;;;;6.33;4.30;;;;;;;21.16;54.53;99872.78;3313700;29;20062;-72
2021/08/05 03:26:25;;;;;;;8.97;3.90;;;;;;;21.22;55.18;99872.56;3313784;29;20061;-71
2021/08/05 03:28:06;;;;;;;7.53;3.70;;;;;;;21.35;55.80;99868.59;3313786;29;20038;-70
2021/08/05 03:29:46;;;;;;;5.27;3.17;;;;;;;21.54;56.20;99875.25;3313633;29;20051;-69
2021/08/05 03:31:27;;;;;;;10.17;3.40;;;;;;;21.74;56.25;99862.88;3313907;29;20196;-70
2021/08/05 03:33:08;;;;;;;8.33;3.50;;;;;;;21.92;55.75;99873.28;3313725;29;20089;-70
2021/08/05 03:34:48;;;;;;;7.43;3.80;;;;;;;22.10;55.63;99869.28;3313614;29;20074;-71
2021/08/05 03:36:29;;;;;;;9.60;3.47;;;;;;;22.25;55.43;99873.94;3313765;29;20526;-72
2021/08/05 03:38:10;;;;;;;5.37;3.50;;;;;;;22.36;55.04;99869.38;3313611;29;20430;-71
2021/08/05 03:39:52;;;;;;;8.00;3.22;;;;;;;22.47;54.55;99876.44;3313714;29;20503;-70
2021/08/05 03:41:32;;;;;;;4.97;3.63;;;;;;;22.53;54.54;99863.69;3313793;29;20133;-71
2021/08/05 03:43:13;;;;;;;9.80;4.40;;;;;;;22.63;54.05;99861.00;3313444;29;20423;-70
2021/08/05 03:44:54;;;;;;;5.57;3.43;;;;;;;22.70;53.88;99872.41;3313424;29;20047;-69
2021/08/05 03:46:35;;;;;;;8.10;3.40;;;;;;;22.77;53.28;99869.41;3313550;29;20054;-70
2021/08/05 03:48:16;;;;;;;4.67;3.27;;;;;;;22.82;53.07;99864.81;3325030;29;20519;-69
2021/08/05 03:49:56;;;;;;;5.17;3.10;;;;;;;22.92;52.93;99871.31;3315820;29;20047;-69
2021/08/05 03:51:37;;;;;;;4.97;4.17;;;;;;;22.97;52.76;99874.06;3313448;29;20047;-70
2021/08/05 03:53:18;;;;;;;6.40;3.27;;;;;;;23.03;52.57;99873.81;3313414;29;20051;-70
2021/08/05 03:54:58;;;;;;;9.43;3.83;;;;;;;23.10;52.28;99872.72;3313724;29;20054;-70
2021/08/05 03:56:39;;;;;;;6.83;4.23;;;;;;;23.15;52.20;99872.72;3313479;29;20051;-70
2021/08/05 03:58:20;;;;;;;6.10;3.47;;;;;;;23.20;51.90;99872.72;3324747;29;20042;-70
2021/08/05 04:00:00;;;;;;;3.47;2.97;;;;;;;23.23;51.97;99872.16;3315948;29;20196;-69
2021/08/05 04:01:41;;;;;;;4.20;2.97;;;;;;;23.27;51.71;99865.91;3313341;29;20047;-72
2021/08/05 04:03:21;;;;;;;5.80;3.97;;;;;;;23.32;51.50;99862.38;3313504;29;20496;-69
2021/08/05 04:05:02;;;;;;;4.13;3.50;;;;;;;23.38;51.36;99861.25;3313104;29;20054;-71
2021/08/05 04:06:43;;;;;;;6.17;3.37;;;;;;;23.42;51.21;99865.06;3313339;29;20051;-70
2021/08/05 04:08:23;;;;;;;5.80;3.67;;;;;;;23.48;51.17;99869.41;3313458;29;20051;-70
2021/08/05 04:10:05;;;;;;;6.77;3.10;;;;;;;23.52;51.24;99869.69;3313364;29;20046;-71
2021/08/05 04:11:46;;;;;;;;;;;;;;;23.59;50.91;99878.34;3313505;29;20046;-70
2021/08/05 04:13:27;;;;;;;6.28;3.15;;;;;;;23.60;50.43;99871.03;3313333;29;20290;-72
2021/08/05 04:15:08;;;;;;;4.63;3.20;;;;;;;23.65;50.33;99862.84;3313138;29;20050;-70
2021/08/05 04:16:49;;;;;;;7.20;3.28;;;;;;;23.67;50.28;99866.91;3324435;29;20511;-71
2021/08/05 04:18:29;;;;;;;4.47;3.00;;;;;;;23.73;50.01;99870.47;3315421;29;20053;-70
2021/08/05 04:20:11;;;;;;;5.30;3.10;;;;;;;23.78;49.73;99866.91;3313044;29;20883;-71
2021/08/05 04:21:53;;;;;;;3.58;2.60;;;;;;;23.82;49.96;99867.97;3324550;29;20134;-69
2021/08/05 04:23:35;;;;;;;3.67;2.63;;;;;;;23.84;49.79;99863.88;3315375;29;20047;-69
2021/08/05 04:25:16;;;;;;;5.05;2.90;;;;;;;23.90;49.42;99859.22;3313056;29;20419;-70
2021/08/05 04:26:57;;;;;;;5.40;3.30;;;;;;;23.94;49.49;99863.84;3313024;29;20047;-69
2021/08/05 04:28:37;;;;;;;4.50;2.70;;;;;;;23.99;49.38;99868.44;3312970;29;20050;-70
2021/08/05 04:30:18;;;;;;;3.60;2.97;;;;;;;24.03;49.28;99865.97;3312782;29;20038;-70
2021/08/05 04:31:59;;;;;;;3.33;2.73;;;;;;;24.09;48.97;99864.88;3312992;29;20464;-70
2021/08/05 04:33:40;;;;;;;3.57;2.47;;;;;;;24.15;48.92;99852.84;3312922;29;20323;-71
2021/08/05 04:35:21;;;;;;;3.27;2.57;;;;;;;24.20;48.77;99846.56;3312979;29;20134;-71
2021/08/05 04:37:02;;;;;;;8.67;2.43;;;;;;;24.25;48.49;99849.25;3324422;29;20507;-70
2021/08/05 04:38:43;;;;;;;4.75;2.38;;;;;;;24.27;48.59;99847.88;3311596;29;20318;-70
2021/08/05 04:40:25;;;;;;;6.10;2.70;;;;;;;24.30;48.35;99841.88;3312915;29;20054;-72
2021/08/05 04:42:06;;;;;;;21.73;3.25;;;;;;;24.38;48.05;99844.00;3324382;29;20058;-71
2021/08/05 04:43:46;;;;;;;5.17;2.40;;;;;;;24.44;48.20;99852.94;3314962;29;20418;-70
2021/08/05 04:45:27;;;;;;;3.67;2.30;;;;;;;24.46;47.84;99850.78;3312794;29;20058;-68
2021/08/05 04:47:10;;;;;;;3.83;2.20;;;;;;;24.50;47.79;99857.31;3312792;29;20106;-72
2021/08/05 04:48:52;;;;;;;4.75;2.67;;;;;;;24.47;47.70;99851.59;3312791;29;20138;-71
2021/08/05 04:50:39;;;;;;;3.87;2.17;;;;;;;24.41;47.53;99853.50;3312919;29;20506;-72
2021/08/05 04:52:19;;;;;;;5.20;4.30;;;;;;;24.30;47.50;99847.31;3324367;29;20068;-72
2021/08/05 04:54:02;;;;;;;4.97;2.60;;;;;;;24.20;47.35;99852.00;3315033;29;20047;-71
2021/08/05 04:55:44;;;;;;;5.50;3.30;;;;;;;24.10;47.22;99848.22;3312623;29;20084;-71
2021/08/05 04:57:25;;;;;;;5.38;2.58;;;;;;;24.04;46.94;99843.91;3324400;29;20050;-71
2021/08/05 04:59:05;;;;;;;5.07;2.87;;;;;;;23.98;46.68;99844.22;3314782;29;20137;-72
2021/08/05 05:00:47;;;;;;;2.97;2.17;;;;;;;23.94;46.76;99846.69;3312602;29;20145;-71
2021/08/05 05:02:27;;;;;;;5.63;2.55;;;;;;;23.90;46.68;99843.69;3312673;29;20050;-73
2021/08/05 05:04:12;;;;;;;4.72;2.58;;;;;;;23.88;46.85;99851.34;3312676;29;20134;-73
2021/08/05 05:05:52;;;;;;;4.72;2.50;;;;;;;23.86;46.75;99842.63;3312520;29;20055;-73
2021/08/05 05:07:34;;;;;;;2.97;2.17;;;;;;;23.86;46.68;99847.28;3312728;29;20518;-72
2021/08/05 05:09:14;;;;;;;4.22;2.92;;;;;;;23.79;46.56;99835.88;3312371;29;20115;-72
2021/08/05 05:10:59;;;;;;;3.70;2.53;;;;;;;23.81;46.61;99839.94;3324315;29;20058;-72
2021/08/05 05:12:40;;;;;;;9.20;3.17;;;;;;;23.84;46.84;99849.47;3314459;29;20054;-72
2021/08/05 05:14:21;;;;;;;7.00;2.75;;;;;;;23.82;46.43;99847.00;3311451;29;20111;-74
2021/08/05 05:16:02;;;;;;;8.17;3.13;;;;;;;23.85;46.42;99851.91;3312486;29;20051;-73
2021/08/05 05:17:44;;;;;;;5.60;2.80;;;;;;;23.85;46.70;99857.34;3311530;29;20207;-72
2021/08/05 05:19:24;;;;;;;;;;;;;;;23.96;46.30;99863.56;3313080;29;20103;-72
2021/08/05 05:21:05;;;;;;;8.20;2.92;;;;;;;23.91;46.23;99853.50;3312491;29;19916;-73
2021/08/05 05:22:46;;;;;;;3.67;2.80;;;;;;;23.94;45.74;99850.22;3312351;29;20047;-74
2021/08/05 05:24:26;;;;;;;9.17;3.67;;;;;;;23.98;45.84;99849.66;3312470;29;20050;-73
2021/08/05 05:26:08;;;;;;;5.25;2.42;;;;;;;24.03;45.72;99846.91;3312442;29;20076;-72
2021/08/05 05:27:49;;;;;;;5.40;2.43;;;;;;;24.08;45.90;99844.16;3312189;29;20055;-73
2021/08/05 05:29:29;;;;;;;5.87;2.83;;;;;;;24.11;45.61;99849.03;3312534;29;20423;-73
2021/08/05 05:31:10;;;;;;;4.47;2.60;;;;;;;24.19;45.85;99850.38;3312274;29;21207;-74
2021/08/05 05:32:51;;;;;;;9.20;3.03;;;;;;;24.24;45.70;99847.59;3312350;29;20427;-73
2021/08/05 05:34:34;;;;;;;15.60;3.10;;;;;;;24.30;45.57;99852.75;3321389;29;20050;-72
2021/08/05 05:36:15;;;;;;;8.00;2.38;;;;;;;24.38;45.00;99848.63;3322266;29;20087;-75
2021/08/05 05:37:57;;;;;;;4.88;2.70;;;;;;;24.44;44.83;99847.50;3320587;29;20494;-75
2021/08/05 05:39:38;;;;;;;7.38;2.90;;;;;;;24.50;44.75;99842.84;3323169;29;20046;-73
2021/08/05 05:41:19;;;;;;;15.37;2.80;;;;;;;24.54;44.58;99846.66;3323589;29;20522;-74
2021/08/05 05:43:01;;;;;;;4.93;2.50;;;;;;;24.60;44.57;99845.50;3323155;29;20054;-73
2021/08/05 05:44:43;;;;;;;5.85;2.58;;;;;;;24.64;44.79;99846.56;3324516;29;20080;-74
2021/08/05 05:46:24;;;;;;;6.95;3.33;;;;;;;24.69;44.51;99841.06;3324647;29;20195;-72
2021/08/05 05:48:06;;;;;;;5.73;3.00;;;;;;;24.71;44.94;99836.16;3324612;29;20506;-74
2021/08/05 05:49:48;;;;;;;7.10;3.58;;;;;;;24.75;44.39;99842.66;3323720;29;20038;-73
2021/08/05 05:51:28;;;;;;;4.82;2.58;;;;;;;24.79;44.65;99843.72;3324513;29;20137;-73
2021/08/05 05:53:09;;;;;;;4.80;2.80;;;;;;;24.84;44.53;99839.34;3324835;29;20491;-73
2021/08/05 05:54:50;;;;;;;6.55;2.67;;;;;;;24.87;44.30;99842.31;3324919;29;20046;-74
2021/08/05 05:56:32;;;;;;;6.70;3.30;;;;;;;24.85;43.89;99833.59;3324704;29;20137;-73
2021/08/05 05:58:13;;;;;;;4.32;2.15;;;;;;;24.87;43.58;99833.31;3335869;29;20426;-74
2021/08/05 05:59:53;;;;;;;5.07;1.93;;;;;;;24.88;43.74;99830.28;3326737;29;20049;-73
2021/08/05 06:01:35;;;;;;;3.67;2.40;;;;;;;24.90;43.38;99827.28;3324672;29;20103;-74
2021/08/05 06:03:17;;;;;;;4.43;2.28;;;;;;;24.93;43.17;99823.97;3311289;29;20577;-74
2021/08/05 06:04:58;;;;;;;5.78;2.47;;;;;;;24.95;43.36;99828.03;3322448;29;20077;-73
2021/08/05 06:06:39;;;;;;;8.57;2.50;;;;;;;25.01;43.08;99817.91;3324696;29;20130;-75
2021/08/05 06:08:20;;;;;;;4.10;2.75;;;;;;;25.07;42.98;99821.38;3324420;29;20058;-73
2021/08/05 06:10:02;;;;;;;7.17;2.23;;;;;;;25.11;42.89;99811.53;3323720;29;20485;-74
2021/08/05 06:11:43;;;;;;;9.13;2.63;;;;;;;25.19;43.22;99817.19;3324180;29;20073;-72
2021/08/05 06:13:25;;;;;;;3.97;2.37;;;;;;;25.26;42.88;99824.25;3324728;29;20117;-72
2021/08/05 06:15:06;;;;;;;7.50;4.80;;;;;;;25.32;42.89;99820.34;3324493;29;20194;-74
2021/08/05 06:16:47;;;;;;;12.88;4.50;;;;;;;25.42;42.68;99820.25;3324282;29;20053;-72
2021/08/05 06:18:28;;;;;;;11.00;4.70;;;;;;;25.52;43.06;99820.13;3324545;29;20051;-74
2021/08/05 06:20:11;;;;;;;4.80;3.77;;;;;;;25.64;42.61;99825.19;3323695;29;20296;-74
2021/08/05 06:21:52;;;;;;;7.47;4.35;;;;;;;25.81;42.91;99819.22;3334112;29;20050;-72
2021/08/05 06:23:33;;;;;;;8.63;3.57;;;;;;;25.97;42.14;99817.13;3326858;29;20054;-73
2021/08/05 06:25:15;;;;;;;3.63;2.77;;;;;;;26.14;42.32;99824.84;3324322;29;20057;-74
2021/08/05 06:26:55;;;;;;;9.38;3.17;;;;;;;26.32;42.17;99826.75;3324458;29;20507;-72
2021/08/05 06:28:36;;;;;;;10.07;3.37;;;;;;;26.47;41.87;99833.94;3325896;29;20102;-72
2021/08/05 06:30:18;;;;;;;9.07;3.25;;;;;;;26.60;41.60;99826.94;3326814;29;20079;-72
2021/08/05 06:31:58;;;;;;;8.02;2.88;;;;;;;26.75;41.04;99827.50;3326532;29;20069;-73
2021/08/05 06:33:39;;;;;;;8.30;3.27;;;;;;;26.89;40.75;99832.19;3328404;29;20047;-75
2021/08/05 06:35:20;;;;;;;6.50;3.40;;;;;;;27.02;40.61;99827.84;3329417;29;20053;-73
2021/08/05 06:37:00;;;;;;;6.27;3.70;;;;;;;27.12;40.28;99827.69;3326564;29;20154;-73
2021/08/05 06:38:41;;;;;;;16.33;3.80;;;;;;;27.24;39.92;99825.31;3325225;29;20082;-75
2021/08/05 06:40:22;;;;;;;8.10;3.30;;;;;;;27.38;39.54;99830.78;3326385;29;20065;-74
2021/08/05 06:42:03;;;;;;;7.93;3.60;;;;;;;27.53;39.30;99835.16;3325244;29;20090;-74
2021/08/05 06:43:44;;;;;;;5.90;2.80;;;;;;;27.68;39.55;99834.84;3322970;29;20164;-72
2021/08/05 06:45:24;;;;;;;7.83;2.70;;;;;;;27.77;39.46;99830.25;3326369;29;20791;-74
2021/08/05 06:47:06;;;;;;;4.87;2.60;;;;;;;27.91;39.12;99835.78;3326676;29;20094;-73
2021/08/05 06:48:48;;;;;;;7.95;3.13;;;;;;;28.04;38.72;99834.13;3326602;29;20051;-74
2021/08/05 06:50:29;;;;;;;5.97;3.13;;;;;;;28.15;38.15;99827.31;3326387;29;20099;-72
2021/08/05 06:52:10;;;;;;;13.53;3.40;;;;;;;28.27;38.05;99837.75;3326529;29;20050;-72
2021/08/05 06:53:52;;;;;;;6.10;3.13;;;;;;;28.39;37.81;99834.44;3338277;29;20137;-73
2021/08/05 06:55:32;;;;;;;;;;;;;;;28.52;38.08;99839.09;3329240;29;20110;-74
2021/08/05 06:57:13;;;;;;;4.03;2.03;;;;;;;28.55;37.18;99826.69;3326306;29;19924;-74
2021/08/05 06:58:54;;;;;;;3.93;2.43;;;;;;;28.65;37.18;99832.72;3326338;29;20046;-72
2021/08/05 07:00:34;;;;;;;5.87;3.37;;;;;;;28.72;36.91;99826.00;3326468;29;20050;-74
2021/08/05 07:02:15;;;;;;;7.50;1.87;;;;;;;28.80;36.61;99814.28;3327738;29;20043;-72
2021/08/05 07:03:56;;;;;;;5.47;2.37;;;;;;;28.91;36.42;99810.13;3322792;29;20046;-74
2021/08/05 07:05:37;;;;;;;8.90;2.58;;;;;;;29.02;36.35;99813.47;3326342;29;20050;-73
2021/08/05 07:07:19;;;;;;;3.90;2.20;;;;;;;29.14;36.79;99813.69;3326517;29;20057;-74
2021/08/05 07:09:00;;;;;;;3.55;1.90;;;;;;;29.24;36.45;99815.34;3326481;29;20050;-74
2021/08/05 07:10:40;;;;;;;6.70;2.37;;;;;;;29.35;36.11;99822.16;3326514;29;20102;-73
2021/08/05 07:12:21;;;;;;;4.67;2.10;;;;;;;29.43;35.66;99818.69;3326458;29;20046;-73
2021/08/05 07:14:02;;;;;;;4.90;2.50;;;;;;;29.53;35.58;99821.13;3326347;29;20417;-74
2021/08/05 07:15:43;;;;;;;5.10;2.78;;;;;;;29.65;35.48;99820.53;3326074;29;20054;-72
2021/08/05 07:17:23;;;;;;;5.07;2.37;;;;;;;29.77;35.32;99811.69;3326144;29;20560;-73
2021/08/05 07:19:04;;;;;;;2.80;2.00;;;;;;;29.89;35.25;99814.59;3326132;29;20304;-74
2021/08/05 07:20:45;;;;;;;3.23;2.07;;;;;;;30.06;35.25;99819.34;3326197;29;20042;-73
2021/08/05 07:22:26;;;;;;;4.47;2.37;;;;;;;30.14;35.41;99809.47;3325494;29;20470;-71
2021/08/05 07:24:06;;;;;;;6.77;2.90;;;;;;;30.26;35.00;99811.63;3326018;29;20080;-71
2021/08/05 07:25:47;;;;;;;8.00;3.10;;;;;;;30.34;34.96;99800.63;3325941;29;20415;-73
2021/08/05 07:27:28;;;;;;;3.83;2.80;;;;;;;30.46;34.60;99810.16;3326224;29;20050;-74
2021/08/05 07:29:09;;;;;;;4.20;2.90;;;;;;;30.55;34.26;99808.22;3326095;29;20062;-72
2021/08/05 07:30:52;;;;;;;4.80;2.80;;;;;;;30.69;33.86;99811.56;3326172;29;20054;-74
2021/08/05 07:32:32;;;;;;;10.23;3.17;;;;;;;30.77;33.35;99801.69;3326292;29;20061;-73
2021/08/05 07:34:13;;;;;;;4.72;2.45;;;;;;;30.86;33.28;99808.03;3325827;29;20046;-73
2021/08/05 07:35:54;;;;;;;5.03;2.80;;;;;;;30.90;32.80;99802.66;3326081;29;20144;-74
2021/08/05 07:37:35;;;;;;;6.10;2.93;;;;;;;30.92;33.56;99798.44;3326010;29;20503;-74
2021/08/05 07:39:15;;;;;;;8.02;3.20;;;;;;;30.92;33.28;99797.63;3326006;29;21080;-74
2021/08/05 07:40:56;;;;;;;5.70;3.30;;;;;;;30.92;32.54;99800.41;3325553;29;20046;-73
2021/08/05 07:42:37;;;;;;;7.70;3.03;;;;;;;30.92;32.85;99794.88;3325922;29;20299;-74
2021/08/05 07:44:18;;;;;;;8.57;2.40;;;;;;;31.02;32.73;99794.53;3326169;29;20057;-74
2021/08/05 07:45:58;;;;;;;3.87;2.33;;;;;;;31.12;32.31;99794.19;3326406;29;20088;-73
2021/08/05 07:47:39;;;;;;;5.28;2.50;;;;;;;31.22;32.03;99784.75;3325922;29;20275;-73
2021/08/05 07:49:20;;;;;;;3.57;2.40;;;;;;;31.30;32.51;99792.97;3326130;29;20054;-74
2021/08/05 07:51:00;;;;;;;4.17;1.97;;;;;;;31.34;32.68;99795.03;3326081;29;20510;-74
2021/08/05 07:52:41;;;;;;;4.80;2.90;;;;;;;31.29;32.99;99799.63;3325849;29;20066;-72
2021/08/05 07:54:22;;;;;;;5.43;2.30;;;;;;;31.24;32.55;99801.75;3324802;29;20038;-74
2021/08/05 07:56:03;;;;;;;4.15;2.28;;;;;;;31.15;32.62;99796.25;3325876;29;20046;-73
2021/08/05 07:57:44;;;;;;;4.75;2.28;;;;;;;31.03;32.19;99790.63;3325910;29;20046;-73
2021/08/05 07:59:24;;;;;;;4.37;1.93;;;;;;;30.94;32.37;99795.38;3325872;29;20186;-73